Terminal Aerodrome Forecast
Issued by NWS North Platte, NE

Home | Current Version | Previous Version | Text Only | Print | Product List | Glossary Off
Versions: 1 2 3 4 5 6 7 8 9 10 11 12 13 14 15 16 17 18 19 20 21 22 23 24 25 26 27 28

000
FTUS43 KLBF 252329
TAFVTN
TAF
KVTN 252329Z 2600/2624 18014G23KT P6SM SKC
     FM260300 16012KT P6SM SCT250
     FM260600 18010KT P6SM BKN250
     FM261500 18014KT P6SM FEW200
     FM261800 18015G21KT P6SM SCT060 PROB30 2621/2624 P6SM -TSRA
      BKN060CB BKN120=

USA.gov is the U.S. government's official web portal to all federal, state and local government web resources and services.